sensor_id;sensor_type;location;lat;lon;timestamp;P1;durP1;ratioP1;P2;durP2;ratioP2
6902;SDS011;20232;49.408;8.702;2022-12-07T05:00:36;12.77;;;10.23;;
6902;SDS011;20232;49.408;8.702;2022-12-07T05:03:02;11.50;;;9.67;;
6902;SDS011;20232;49.408;8.702;2022-12-07T05:05:28;11.40;;;9.90;;
6902;SDS011;20232;49.408;8.702;2022-12-07T05:07:54;11.80;;;10.20;;
6902;SDS011;20232;49.408;8.702;2022-12-07T05:10:20;11.33;;;10.20;;
6902;SDS011;20232;49.408;8.702;2022-12-07T05:12:46;11.63;;;10.23;;
6902;SDS011;20232;49.408;8.702;2022-12-07T05:15:12;10.67;;;9.57;;
6902;SDS011;20232;49.408;8.702;2022-12-07T05:17:38;11.37;;;10.23;;
6902;SDS011;20232;49.408;8.702;2022-12-07T05:20:05;12.20;;;11.00;;
6902;SDS011;20232;49.408;8.702;2022-12-07T05:22:31;13.53;;;11.13;;
6902;SDS011;20232;49.408;8.702;2022-12-07T05:24:57;12.20;;;10.90;;
6902;SDS011;20232;49.408;8.702;2022-12-07T05:27:23;12.50;;;10.63;;
6902;SDS011;20232;49.408;8.702;2022-12-07T05:29:52;12.27;;;10.60;;
6902;SDS011;20232;49.408;8.702;2022-12-07T05:32:18;14.87;;;11.27;;
6902;SDS011;20232;49.408;8.702;2022-12-07T05:34:44;12.33;;;11.03;;
6902;SDS011;20232;49.408;8.702;2022-12-07T05:37:10;12.57;;;10.53;;
6902;SDS011;20232;49.408;8.702;2022-12-07T05:39:36;12.27;;;10.80;;
6902;SDS011;20232;49.408;8.702;2022-12-07T05:42:05;13.40;;;11.17;;
6902;SDS011;20232;49.408;8.702;2022-12-07T05:44:38;11.97;;;10.33;;
6902;SDS011;20232;49.408;8.702;2022-12-07T05:47:04;12.70;;;11.10;;
6902;SDS011;20232;49.408;8.702;2022-12-07T05:49:30;13.23;;;11.83;;
6902;SDS011;20232;49.408;8.702;2022-12-07T05:51:56;13.83;;;11.77;;
6902;SDS011;20232;49.408;8.702;2022-12-07T05:54:22;16.00;;;12.93;;
6902;SDS011;20232;49.408;8.702;2022-12-07T05:56:48;13.40;;;12.00;;
6902;SDS011;20232;49.408;8.702;2022-12-07T05:59:14;13.03;;;11.30;;
6902;SDS011;20232;49.408;8.702;2022-12-07T06:01:50;13.70;;;11.80;;
6902;SDS011;20232;49.408;8.702;2022-12-07T06:04:16;14.13;;;12.43;;
6902;SDS011;20232;49.408;8.702;2022-12-07T06:06:42;16.00;;;12.47;;
6902;SDS011;20232;49.408;8.702;2022-12-07T06:09:08;13.20;;;11.80;;
6902;SDS011;20232;49.408;8.702;2022-12-07T06:11:34;14.13;;;11.83;;
6902;SDS011;20232;49.408;8.702;2022-12-07T06:14:19;17.60;;;12.83;;
6902;SDS011;20232;49.408;8.702;2022-12-07T06:16:45;14.33;;;12.23;;
6902;SDS011;20232;49.408;8.702;2022-12-07T06:19:11;14.33;;;11.90;;
6902;SDS011;20232;49.408;8.702;2022-12-07T06:21:37;14.13;;;12.63;;
6902;SDS011;20232;49.408;8.702;2022-12-07T06:24:03;17.73;;;12.57;;
6902;SDS011;20232;49.408;8.702;2022-12-07T06:26:29;14.20;;;12.17;;
6902;SDS011;20232;49.408;8.702;2022-12-07T06:28:55;13.10;;;11.77;;
6902;SDS011;20232;49.408;8.702;2022-12-07T06:31:21;15.73;;;13.47;;
6902;SDS011;20232;49.408;8.702;2022-12-07T06:33:47;15.30;;;13.00;;
6902;SDS011;20232;49.408;8.702;2022-12-07T06:36:13;15.00;;;12.60;;
6902;SDS011;20232;49.408;8.702;2022-12-07T06:38:39;15.60;;;12.63;;
6902;SDS011;20232;49.408;8.702;2022-12-07T06:41:05;14.90;;;12.40;;
6902;SDS011;20232;49.408;8.702;2022-12-07T06:43:31;16.63;;;13.00;;
6902;SDS011;20232;49.408;8.702;2022-12-07T06:45:58;16.07;;;13.53;;
6902;SDS011;20232;49.408;8.702;2022-12-07T06:48:24;15.73;;;13.90;;
6902;SDS011;20232;49.408;8.702;2022-12-07T06:50:50;17.83;;;13.00;;
6902;SDS011;20232;49.408;8.702;2022-12-07T06:53:16;15.50;;;13.17;;
6902;SDS011;20232;49.408;8.702;2022-12-07T06:55:42;19.57;;;14.77;;
6902;SDS011;20232;49.408;8.702;2022-12-07T06:58:08;18.80;;;14.07;;
6902;SDS011;20232;49.408;8.702;2022-12-07T07:00:37;16.63;;;14.00;;
6902;SDS011;20232;49.408;8.702;2022-12-07T07:03:03;18.40;;;14.10;;
6902;SDS011;20232;49.408;8.702;2022-12-07T07:05:29;17.37;;;14.57;;
6902;SDS011;20232;49.408;8.702;2022-12-07T07:07:55;18.27;;;15.17;;
6902;SDS011;20232;49.408;8.702;2022-12-07T07:10:21;17.13;;;14.80;;
6902;SDS011;20232;49.408;8.702;2022-12-07T07:12:47;16.70;;;13.90;;
6902;SDS011;20232;49.408;8.702;2022-12-07T07:15:13;16.87;;;14.37;;
6902;SDS011;20232;49.408;8.702;2022-12-07T07:17:39;17.50;;;14.70;;
6902;SDS011;20232;49.408;8.702;2022-12-07T07:20:05;16.73;;;14.07;;
6902;SDS011;20232;49.408;8.702;2022-12-07T07:22:31;17.47;;;13.97;;
6902;SDS011;20232;49.408;8.702;2022-12-07T07:24:57;17.90;;;14.10;;
6902;SDS011;20232;49.408;8.702;2022-12-07T07:27:23;18.20;;;14.20;;
6902;SDS011;20232;49.408;8.702;2022-12-07T07:29:49;20.33;;;17.40;;
6902;SDS011;20232;49.408;8.702;2022-12-07T07:32:15;18.80;;;14.67;;
6902;SDS011;20232;49.408;8.702;2022-12-07T07:34:41;19.97;;;15.20;;
6902;SDS011;20232;49.408;8.702;2022-12-07T07:37:07;19.20;;;15.87;;
6902;SDS011;20232;49.408;8.702;2022-12-07T07:39:33;18.40;;;14.53;;
6902;SDS011;20232;49.408;8.702;2022-12-07T07:41:59;18.33;;;15.30;;
6902;SDS011;20232;49.408;8.702;2022-12-07T07:44:25;18.70;;;15.30;;
6902;SDS011;20232;49.408;8.702;2022-12-07T07:46:51;20.77;;;14.80;;
6902;SDS011;20232;49.408;8.702;2022-12-07T07:49:17;18.03;;;14.63;;
6902;SDS011;20232;49.408;8.702;2022-12-07T07:51:43;19.03;;;15.53;;
6902;SDS011;20232;49.408;8.702;2022-12-07T07:54:09;19.60;;;15.77;;
6902;SDS011;20232;49.408;8.702;2022-12-07T07:56:35;19.70;;;14.90;;
6902;SDS011;20232;49.408;8.702;2022-12-07T07:59:01;19.13;;;15.50;;
6902;SDS011;20232;49.408;8.702;2022-12-07T08:01:27;18.50;;;15.20;;
6902;SDS011;20232;49.408;8.702;2022-12-07T08:03:53;21.63;;;15.67;;
6902;SDS011;20232;49.408;8.702;2022-12-07T08:06:19;19.07;;;14.93;;
6902;SDS011;20232;49.408;8.702;2022-12-07T08:08:45;21.77;;;15.73;;
6902;SDS011;20232;49.408;8.702;2022-12-07T08:11:11;17.47;;;14.33;;
6902;SDS011;20232;49.408;8.702;2022-12-07T08:13:37;20.83;;;14.37;;
6902;SDS011;20232;49.408;8.702;2022-12-07T08:16:04;18.53;;;13.57;;
6902;SDS011;20232;49.408;8.702;2022-12-07T08:18:30;16.70;;;13.03;;
6902;SDS011;20232;49.408;8.702;2022-12-07T08:21:02;17.50;;;13.47;;
6902;SDS011;20232;49.408;8.702;2022-12-07T08:23:29;16.67;;;13.40;;
6902;SDS011;20232;49.408;8.702;2022-12-07T08:25:55;17.97;;;14.00;;
6902;SDS011;20232;49.408;8.702;2022-12-07T08:28:25;17.43;;;13.57;;
6902;SDS011;20232;49.408;8.702;2022-12-07T08:30:51;15.30;;;13.03;;
6902;SDS011;20232;49.408;8.702;2022-12-07T08:33:17;16.60;;;12.83;;
6902;SDS011;20232;49.408;8.702;2022-12-07T08:35:43;15.53;;;12.70;;
6902;SDS011;20232;49.408;8.702;2022-12-07T08:38:09;16.23;;;13.30;;
6902;SDS011;20232;49.408;8.702;2022-12-07T08:40:35;16.07;;;13.20;;
6902;SDS011;20232;49.408;8.702;2022-12-07T08:43:01;17.37;;;13.77;;
6902;SDS011;20232;49.408;8.702;2022-12-07T08:45:27;18.30;;;15.23;;
6902;SDS011;20232;49.408;8.702;2022-12-07T08:47:58;15.40;;;13.13;;
6902;SDS011;20232;49.408;8.702;2022-12-07T08:50:27;17.57;;;13.83;;
6902;SDS011;20232;49.408;8.702;2022-12-07T08:52:53;16.97;;;14.40;;
6902;SDS011;20232;49.408;8.702;2022-12-07T08:55:20;16.90;;;14.30;;
6902;SDS011;20232;49.408;8.702;2022-12-07T08:57:47;19.33;;;14.73;;
6902;SDS011;20232;49.408;8.702;2022-12-07T09:00:13;17.23;;;14.80;;
6902;SDS011;20232;49.408;8.702;2022-12-07T09:02:39;21.27;;;16.00;;
6902;SDS011;20232;49.408;8.702;2022-12-07T09:05:05;18.87;;;15.23;;
6902;SDS011;20232;49.408;8.702;2022-12-07T09:07:32;16.67;;;14.37;;
6902;SDS011;20232;49.408;8.702;2022-12-07T09:09:58;21.27;;;16.07;;
6902;SDS011;20232;49.408;8.702;2022-12-07T09:12:24;24.07;;;19.40;;
6902;SDS011;20232;49.408;8.702;2022-12-07T09:14:50;18.13;;;15.00;;
6902;SDS011;20232;49.408;8.702;2022-12-07T09:17:16;18.47;;;14.87;;
6902;SDS011;20232;49.408;8.702;2022-12-07T09:19:42;20.50;;;15.77;;
6902;SDS011;20232;49.408;8.702;2022-12-07T09:22:08;20.57;;;15.93;;
6902;SDS011;20232;49.408;8.702;2022-12-07T09:24:34;20.70;;;15.17;;
6902;SDS011;20232;49.408;8.702;2022-12-07T09:27:00;16.60;;;14.27;;
6902;SDS011;20232;49.408;8.702;2022-12-07T09:29:26;16.73;;;14.40;;
6902;SDS011;20232;49.408;8.702;2022-12-07T09:31:52;23.97;;;18.20;;
6902;SDS011;20232;49.408;8.702;2022-12-07T09:34:18;21.63;;;17.20;;
6902;SDS011;20232;49.408;8.702;2022-12-07T09:36:45;23.87;;;17.67;;
6902;SDS011;20232;49.408;8.702;2022-12-07T09:39:11;18.90;;;15.43;;
6902;SDS011;20232;49.408;8.702;2022-12-07T09:41:37;19.90;;;15.67;;
6902;SDS011;20232;49.408;8.702;2022-12-07T09:44:05;25.30;;;19.50;;
6902;SDS011;20232;49.408;8.702;2022-12-07T09:46:35;26.23;;;21.33;;
6902;SDS011;20232;49.408;8.702;2022-12-07T09:49:02;21.10;;;15.60;;
6902;SDS011;20232;49.408;8.702;2022-12-07T09:51:28;18.50;;;14.80;;
6902;SDS011;20232;49.408;8.702;2022-12-07T09:53:55;18.27;;;15.07;;
6902;SDS011;20232;49.408;8.702;2022-12-07T09:56:22;16.63;;;14.77;;
6902;SDS011;20232;49.408;8.702;2022-12-07T09:58:49;19.20;;;14.60;;
6902;SDS011;20232;49.408;8.702;2022-12-07T10:01:19;17.97;;;14.67;;
6902;SDS011;20232;49.408;8.702;2022-12-07T10:03:50;21.43;;;17.10;;
6902;SDS011;20232;49.408;8.702;2022-12-07T10:06:16;19.83;;;15.73;;
6902;SDS011;20232;49.408;8.702;2022-12-07T10:08:43;17.43;;;15.53;;
6902;SDS011;20232;49.408;8.702;2022-12-07T10:11:09;21.07;;;16.53;;
6902;SDS011;20232;49.408;8.702;2022-12-07T10:13:40;20.23;;;16.53;;
6902;SDS011;20232;49.408;8.702;2022-12-07T10:16:06;20.77;;;17.67;;
6902;SDS011;20232;49.408;8.702;2022-12-07T10:18:52;18.33;;;16.43;;
6902;SDS011;20232;49.408;8.702;2022-12-07T10:21:28;21.17;;;16.57;;
6902;SDS011;20232;49.408;8.702;2022-12-07T10:24:01;17.10;;;14.97;;
6902;SDS011;20232;49.408;8.702;2022-12-07T10:29:16;18.57;;;15.37;;
6902;SDS011;20232;49.408;8.702;2022-12-07T10:31:43;19.60;;;15.27;;
6902;SDS011;20232;49.408;8.702;2022-12-07T10:34:22;19.27;;;15.17;;
6902;SDS011;20232;49.408;8.702;2022-12-07T10:36:49;19.93;;;15.67;;
6902;SDS011;20232;49.408;8.702;2022-12-07T10:39:17;18.07;;;15.47;;
6902;SDS011;20232;49.408;8.702;2022-12-07T10:42:00;17.53;;;14.70;;
6902;SDS011;20232;49.408;8.702;2022-12-07T10:44:27;18.33;;;14.70;;
6902;SDS011;20232;49.408;8.702;2022-12-07T10:46:58;18.47;;;15.50;;
6902;SDS011;20232;49.408;8.702;2022-12-07T10:55:00;20.67;;;16.10;;
6902;SDS011;20232;49.408;8.702;2022-12-07T10:57:40;19.80;;;15.87;;
6902;SDS011;20232;49.408;8.702;2022-12-07T11:00:13;19.47;;;15.23;;
6902;SDS011;20232;49.408;8.702;2022-12-07T11:02:46;20.37;;;15.87;;
6902;SDS011;20232;49.408;8.702;2022-12-07T11:07:59;20.70;;;16.10;;
6902;SDS011;20232;49.408;8.702;2022-12-07T11:16:02;18.03;;;14.43;;
6902;SDS011;20232;49.408;8.702;2022-12-07T11:18:31;16.83;;;14.47;;
6902;SDS011;20232;49.408;8.702;2022-12-07T11:21:16;18.87;;;14.13;;
6902;SDS011;20232;49.408;8.702;2022-12-07T11:23:46;19.87;;;14.33;;
6902;SDS011;20232;49.408;8.702;2022-12-07T11:29:18;19.60;;;15.13;;
6902;SDS011;20232;49.408;8.702;2022-12-07T11:31:55;17.07;;;13.93;;
6902;SDS011;20232;49.408;8.702;2022-12-07T11:36:56;18.37;;;14.93;;
6902;SDS011;20232;49.408;8.702;2022-12-07T11:41:49;19.23;;;15.23;;
6902;SDS011;20232;49.408;8.702;2022-12-07T11:51:39;18.73;;;14.43;;
6902;SDS011;20232;49.408;8.702;2022-12-07T11:54:49;17.40;;;15.27;;
6902;SDS011;20232;49.408;8.702;2022-12-07T11:56:56;18.93;;;15.40;;
6902;SDS011;20232;49.408;8.702;2022-12-07T11:59:30;18.13;;;14.50;;
6902;SDS011;20232;49.408;8.702;2022-12-07T12:02:03;18.87;;;15.77;;
6902;SDS011;20232;49.408;8.702;2022-12-07T12:04:49;17.97;;;15.43;;
6902;SDS011;20232;49.408;8.702;2022-12-07T12:07:19;21.23;;;15.37;;
6902;SDS011;20232;49.408;8.702;2022-12-07T12:09:56;19.27;;;15.37;;
6902;SDS011;20232;49.408;8.702;2022-12-07T12:20:03;21.10;;;16.43;;
6902;SDS011;20232;49.408;8.702;2022-12-07T12:22:36;20.23;;;15.37;;
6902;SDS011;20232;49.408;8.702;2022-12-07T12:25:04;18.67;;;15.20;;
6902;SDS011;20232;49.408;8.702;2022-12-07T12:27:31;23.03;;;16.10;;
6902;SDS011;20232;49.408;8.702;2022-12-07T12:30:02;21.27;;;15.37;;
6902;SDS011;20232;49.408;8.702;2022-12-07T12:34:58;19.50;;;15.67;;
6902;SDS011;20232;49.408;8.702;2022-12-07T12:42:47;19.93;;;15.13;;
6902;SDS011;20232;49.408;8.702;2022-12-07T12:45:21;16.97;;;14.20;;
6902;SDS011;20232;49.408;8.702;2022-12-07T12:53:05;18.53;;;15.43;;
6902;SDS011;20232;49.408;8.702;2022-12-07T13:00:47;17.47;;;14.33;;
6902;SDS011;20232;49.408;8.702;2022-12-07T13:03:26;17.20;;;13.77;;
6902;SDS011;20232;49.408;8.702;2022-12-07T13:08:54;15.50;;;12.17;;
6902;SDS011;20232;49.408;8.702;2022-12-07T13:11:29;15.13;;;11.87;;
6902;SDS011;20232;49.408;8.702;2022-12-07T13:16:42;13.00;;;9.93;;
6902;SDS011;20232;49.408;8.702;2022-12-07T13:22:00;10.17;;;8.20;;
6902;SDS011;20232;49.408;8.702;2022-12-07T13:24:26;11.43;;;8.30;;
6902;SDS011;20232;49.408;8.702;2022-12-07T13:26:54;12.00;;;7.77;;
6902;SDS011;20232;49.408;8.702;2022-12-07T13:29:21;9.90;;;7.00;;
6902;SDS011;20232;49.408;8.702;2022-12-07T13:34:36;9.80;;;6.87;;
6902;SDS011;20232;49.408;8.702;2022-12-07T13:37:24;17.67;;;7.70;;
6902;SDS011;20232;49.408;8.702;2022-12-07T13:39:52;9.67;;;6.43;;
6902;SDS011;20232;49.408;8.702;2022-12-07T13:42:29;9.53;;;6.17;;
6902;SDS011;20232;49.408;8.702;2022-12-07T13:44:57;9.20;;;6.43;;
6902;SDS011;20232;49.408;8.702;2022-12-07T13:47:36;8.30;;;6.50;;
6902;SDS011;20232;49.408;8.702;2022-12-07T13:50:26;7.33;;;6.43;;
6902;SDS011;20232;49.408;8.702;2022-12-07T13:52:56;8.90;;;6.23;;
6902;SDS011;20232;49.408;8.702;2022-12-07T13:55:23;7.60;;;6.30;;
6902;SDS011;20232;49.408;8.702;2022-12-07T13:57:49;8.93;;;7.20;;
6902;SDS011;20232;49.408;8.702;2022-12-07T14:00:16;10.80;;;6.97;;
6902;SDS011;20232;49.408;8.702;2022-12-07T14:02:57;10.57;;;6.40;;
6902;SDS011;20232;49.408;8.702;2022-12-07T14:05:26;14.27;;;6.80;;
6902;SDS011;20232;49.408;8.702;2022-12-07T14:10:31;11.70;;;6.70;;
6902;SDS011;20232;49.408;8.702;2022-12-07T14:12:58;9.83;;;5.67;;
6902;SDS011;20232;49.408;8.702;2022-12-07T14:15:34;8.40;;;5.90;;
6902;SDS011;20232;49.408;8.702;2022-12-07T14:18:01;9.80;;;6.27;;
6902;SDS011;20232;49.408;8.702;2022-12-07T14:20:36;9.77;;;6.47;;
6902;SDS011;20232;49.408;8.702;2022-12-07T14:23:02;11.70;;;7.07;;
6902;SDS011;20232;49.408;8.702;2022-12-07T14:25:34;9.10;;;7.70;;
6902;SDS011;20232;49.408;8.702;2022-12-07T14:28:23;9.80;;;8.63;;
6902;SDS011;20232;49.408;8.702;2022-12-07T14:30:50;11.43;;;9.27;;
6902;SDS011;20232;49.408;8.702;2022-12-07T14:33:22;11.70;;;8.97;;
6902;SDS011;20232;49.408;8.702;2022-12-07T14:35:49;11.47;;;9.10;;
6902;SDS011;20232;49.408;8.702;2022-12-07T14:38:19;12.13;;;9.37;;
6902;SDS011;20232;49.408;8.702;2022-12-07T14:40:46;12.83;;;9.47;;
6902;SDS011;20232;49.408;8.702;2022-12-07T14:43:12;15.53;;;9.37;;
6902;SDS011;20232;49.408;8.702;2022-12-07T14:45:40;11.50;;;9.20;;
6902;SDS011;20232;49.408;8.702;2022-12-07T14:48:07;13.57;;;9.40;;
6902;SDS011;20232;49.408;8.702;2022-12-07T14:50:35;12.53;;;9.70;;
6902;SDS011;20232;49.408;8.702;2022-12-07T14:53:04;14.27;;;10.53;;
6902;SDS011;20232;49.408;8.702;2022-12-07T14:55:35;11.83;;;9.73;;
6902;SDS011;20232;49.408;8.702;2022-12-07T14:58:01;14.77;;;10.97;;
6902;SDS011;20232;49.408;8.702;2022-12-07T15:00:27;14.93;;;11.10;;
6902;SDS011;20232;49.408;8.702;2022-12-07T15:02:54;13.20;;;11.10;;
6902;SDS011;20232;49.408;8.702;2022-12-07T15:05:20;15.83;;;10.70;;
6902;SDS011;20232;49.408;8.702;2022-12-07T15:07:46;12.47;;;10.50;;
6902;SDS011;20232;49.408;8.702;2022-12-07T15:10:14;14.07;;;11.87;;
6902;SDS011;20232;49.408;8.702;2022-12-07T15:12:41;16.80;;;11.57;;
6902;SDS011;20232;49.408;8.702;2022-12-07T15:15:07;13.73;;;12.17;;
6902;SDS011;20232;49.408;8.702;2022-12-07T15:17:33;13.87;;;11.63;;
6902;SDS011;20232;49.408;8.702;2022-12-07T15:19:59;15.43;;;12.00;;
6902;SDS011;20232;49.408;8.702;2022-12-07T15:22:25;16.10;;;11.93;;
6902;SDS011;20232;49.408;8.702;2022-12-07T15:24:51;13.90;;;11.67;;
6902;SDS011;20232;49.408;8.702;2022-12-07T15:27:17;16.33;;;11.63;;
6902;SDS011;20232;49.408;8.702;2022-12-07T15:29:43;15.03;;;11.80;;
6902;SDS011;20232;49.408;8.702;2022-12-07T15:32:09;16.97;;;11.67;;
6902;SDS011;20232;49.408;8.702;2022-12-07T15:34:35;14.50;;;11.57;;
6902;SDS011;20232;49.408;8.702;2022-12-07T15:37:01;14.13;;;11.70;;
6902;SDS011;20232;49.408;8.702;2022-12-07T15:39:27;18.13;;;12.10;;
6902;SDS011;20232;49.408;8.702;2022-12-07T15:41:53;15.40;;;11.77;;
6902;SDS011;20232;49.408;8.702;2022-12-07T15:44:19;14.47;;;11.87;;
6902;SDS011;20232;49.408;8.702;2022-12-07T15:47:04;16.37;;;11.27;;
6902;SDS011;20232;49.408;8.702;2022-12-07T15:49:30;12.80;;;10.53;;
6902;SDS011;20232;49.408;8.702;2022-12-07T15:51:56;13.23;;;11.37;;
6902;SDS011;20232;49.408;8.702;2022-12-07T15:54:26;14.80;;;11.43;;
6902;SDS011;20232;49.408;8.702;2022-12-07T15:56:52;15.03;;;10.83;;
6902;SDS011;20232;49.408;8.702;2022-12-07T15:59:18;13.53;;;11.07;;
6902;SDS011;20232;49.408;8.702;2022-12-07T16:01:44;14.00;;;11.37;;
6902;SDS011;20232;49.408;8.702;2022-12-07T16:04:10;13.27;;;11.07;;
6902;SDS011;20232;49.408;8.702;2022-12-07T16:06:36;13.70;;;11.57;;
6902;SDS011;20232;49.408;8.702;2022-12-07T16:09:03;15.87;;;11.33;;
6902;SDS011;20232;49.408;8.702;2022-12-07T16:11:29;14.53;;;11.87;;
6902;SDS011;20232;49.408;8.702;2022-12-07T16:13:55;14.60;;;11.43;;
6902;SDS011;20232;49.408;8.702;2022-12-07T16:16:21;17.17;;;12.87;;
6902;SDS011;20232;49.408;8.702;2022-12-07T16:18:48;14.63;;;12.00;;
6902;SDS011;20232;49.408;8.702;2022-12-07T16:21:14;14.17;;;11.87;;
6902;SDS011;20232;49.408;8.702;2022-12-07T16:23:40;13.90;;;11.60;;
6902;SDS011;20232;49.408;8.702;2022-12-07T16:26:07;14.90;;;11.60;;
6902;SDS011;20232;49.408;8.702;2022-12-07T16:28:34;15.63;;;12.37;;
6902;SDS011;20232;49.408;8.702;2022-12-07T16:31:03;14.20;;;12.23;;
6902;SDS011;20232;49.408;8.702;2022-12-07T16:33:30;15.67;;;11.73;;
6902;SDS011;20232;49.408;8.702;2022-12-07T16:35:55;13.60;;;11.10;;
6902;SDS011;20232;49.408;8.702;2022-12-07T16:38:21;15.30;;;12.20;;
6902;SDS011;20232;49.408;8.702;2022-12-07T16:40:47;12.43;;;11.10;;
6902;SDS011;20232;49.408;8.702;2022-12-07T16:43:13;12.33;;;11.03;;
6902;SDS011;20232;49.408;8.702;2022-12-07T16:45:39;15.63;;;12.53;;
6902;SDS011;20232;49.408;8.702;2022-12-07T16:48:05;18.67;;;14.20;;
6902;SDS011;20232;49.408;8.702;2022-12-07T16:50:31;23.03;;;17.70;;
6902;SDS011;20232;49.408;8.702;2022-12-07T16:52:58;12.93;;;10.77;;
6902;SDS011;20232;49.408;8.702;2022-12-07T16:55:24;13.80;;;11.20;;
6902;SDS011;20232;49.408;8.702;2022-12-07T16:57:50;15.57;;;12.77;;
6902;SDS011;20232;49.408;8.702;2022-12-07T17:00:16;17.23;;;12.50;;
6902;SDS011;20232;49.408;8.702;2022-12-07T17:02:42;14.77;;;11.20;;
6902;SDS011;20232;49.408;8.702;2022-12-07T17:05:08;16.40;;;12.67;;
6902;SDS011;20232;49.408;8.702;2022-12-07T17:07:34;15.07;;;12.43;;
6902;SDS011;20232;49.408;8.702;2022-12-07T17:10:00;15.00;;;11.47;;
6902;SDS011;20232;49.408;8.702;2022-12-07T17:12:26;15.33;;;12.53;;
6902;SDS011;20232;49.408;8.702;2022-12-07T17:14:52;16.63;;;13.30;;
6902;SDS011;20232;49.408;8.702;2022-12-07T17:17:36;15.50;;;12.73;;
6902;SDS011;20232;49.408;8.702;2022-12-07T17:20:02;17.70;;;13.70;;
6902;SDS011;20232;49.408;8.702;2022-12-07T17:22:28;16.77;;;13.23;;
6902;SDS011;20232;49.408;8.702;2022-12-07T17:24:54;15.00;;;13.13;;
6902;SDS011;20232;49.408;8.702;2022-12-07T17:27:20;15.77;;;12.97;;
6902;SDS011;20232;49.408;8.702;2022-12-07T17:29:46;16.03;;;13.10;;
6902;SDS011;20232;49.408;8.702;2022-12-07T17:32:12;18.17;;;14.20;;
6902;SDS011;20232;49.408;8.702;2022-12-07T17:34:38;16.60;;;13.33;;
6902;SDS011;20232;49.408;8.702;2022-12-07T17:37:04;16.80;;;13.77;;
6902;SDS011;20232;49.408;8.702;2022-12-07T17:39:30;17.80;;;14.57;;
6902;SDS011;20232;49.408;8.702;2022-12-07T17:41:56;19.87;;;14.60;;
6902;SDS011;20232;49.408;8.702;2022-12-07T17:44:41;17.70;;;14.30;;
6902;SDS011;20232;49.408;8.702;2022-12-07T17:47:07;18.63;;;14.37;;
6902;SDS011;20232;49.408;8.702;2022-12-07T17:49:35;19.27;;;15.03;;
6902;SDS011;20232;49.408;8.702;2022-12-07T17:52:01;20.40;;;16.07;;
6902;SDS011;20232;49.408;8.702;2022-12-07T17:54:45;18.80;;;15.10;;
6902;SDS011;20232;49.408;8.702;2022-12-07T17:57:11;19.10;;;15.97;;
6902;SDS011;20232;49.408;8.702;2022-12-07T17:59:37;21.63;;;16.53;;
6902;SDS011;20232;49.408;8.702;2022-12-07T18:02:03;24.30;;;19.97;;
6902;SDS011;20232;49.408;8.702;2022-12-07T18:04:29;19.40;;;16.20;;
6902;SDS011;20232;49.408;8.702;2022-12-07T18:06:55;21.27;;;15.87;;
6902;SDS011;20232;49.408;8.702;2022-12-07T18:09:21;19.07;;;15.87;;
6902;SDS011;20232;49.408;8.702;2022-12-07T18:11:47;22.00;;;17.43;;
6902;SDS011;20232;49.408;8.702;2022-12-07T18:14:13;20.90;;;16.60;;
6902;SDS011;20232;49.408;8.702;2022-12-07T18:16:40;20.13;;;16.07;;
6902;SDS011;20232;49.408;8.702;2022-12-07T18:19:06;19.93;;;15.53;;
6902;SDS011;20232;49.408;8.702;2022-12-07T18:21:33;21.07;;;17.43;;
6902;SDS011;20232;49.408;8.702;2022-12-07T18:24:00;22.93;;;16.87;;
6902;SDS011;20232;49.408;8.702;2022-12-07T18:26:26;20.27;;;16.27;;
6902;SDS011;20232;49.408;8.702;2022-12-07T18:28:52;26.13;;;17.20;;
6902;SDS011;20232;49.408;8.702;2022-12-07T18:31:18;22.57;;;16.67;;
6902;SDS011;20232;49.408;8.702;2022-12-07T18:33:44;20.03;;;15.83;;
6902;SDS011;20232;49.408;8.702;2022-12-07T18:36:11;22.07;;;15.97;;
6902;SDS011;20232;49.408;8.702;2022-12-07T18:38:37;19.83;;;15.87;;
6902;SDS011;20232;49.408;8.702;2022-12-07T18:41:06;20.40;;;15.87;;
6902;SDS011;20232;49.408;8.702;2022-12-07T18:43:32;20.10;;;15.37;;
6902;SDS011;20232;49.408;8.702;2022-12-07T18:45:58;19.37;;;14.83;;
6902;SDS011;20232;49.408;8.702;2022-12-07T18:48:24;19.57;;;15.00;;
6902;SDS011;20232;49.408;8.702;2022-12-07T18:51:00;16.90;;;14.97;;
6902;SDS011;20232;49.408;8.702;2022-12-07T18:53:26;19.63;;;15.00;;
6902;SDS011;20232;49.408;8.702;2022-12-07T18:58:30;20.07;;;15.23;;
6902;SDS011;20232;49.408;8.702;2022-12-07T19:00:56;21.27;;;15.50;;
6902;SDS011;20232;49.408;8.702;2022-12-07T19:03:23;19.97;;;14.93;;
6902;SDS011;20232;49.408;8.702;2022-12-07T19:05:49;18.90;;;14.97;;
6902;SDS011;20232;49.408;8.702;2022-12-07T19:08:15;20.67;;;15.87;;
6902;SDS011;20232;49.408;8.702;2022-12-07T19:10:41;20.30;;;15.43;;
6902;SDS011;20232;49.408;8.702;2022-12-07T19:13:07;19.17;;;15.43;;
6902;SDS011;20232;49.408;8.702;2022-12-07T19:15:33;19.47;;;15.47;;
6902;SDS011;20232;49.408;8.702;2022-12-07T19:17:59;21.57;;;15.60;;
6902;SDS011;20232;49.408;8.702;2022-12-07T19:20:25;19.47;;;16.27;;
6902;SDS011;20232;49.408;8.702;2022-12-07T19:22:51;18.17;;;15.27;;
6902;SDS011;20232;49.408;8.702;2022-12-07T19:25:17;17.90;;;15.10;;
6902;SDS011;20232;49.408;8.702;2022-12-07T19:27:43;20.30;;;16.47;;
6902;SDS011;20232;49.408;8.702;2022-12-07T19:30:09;19.47;;;15.70;;
6902;SDS011;20232;49.408;8.702;2022-12-07T19:32:35;19.93;;;16.10;;
6902;SDS011;20232;49.408;8.702;2022-12-07T19:35:02;20.10;;;17.00;;
6902;SDS011;20232;49.408;8.702;2022-12-07T19:37:28;20.83;;;16.50;;
6902;SDS011;20232;49.408;8.702;2022-12-07T19:39:54;20.63;;;16.77;;
6902;SDS011;20232;49.408;8.702;2022-12-07T19:42:20;20.90;;;16.17;;
6902;SDS011;20232;49.408;8.702;2022-12-07T19:44:47;21.30;;;17.50;;
6902;SDS011;20232;49.408;8.702;2022-12-07T19:47:13;22.63;;;16.67;;
6902;SDS011;20232;49.408;8.702;2022-12-07T19:49:41;21.03;;;16.27;;
6902;SDS011;20232;49.408;8.702;2022-12-07T19:52:07;23.37;;;18.40;;
6902;SDS011;20232;49.408;8.702;2022-12-07T19:54:34;25.77;;;19.43;;
6902;SDS011;20232;49.408;8.702;2022-12-07T19:57:00;21.00;;;17.07;;
6902;SDS011;20232;49.408;8.702;2022-12-07T19:59:28;20.13;;;17.27;;
6902;SDS011;20232;49.408;8.702;2022-12-07T20:01:54;22.20;;;17.97;;
6902;SDS011;20232;49.408;8.702;2022-12-07T20:04:21;20.80;;;17.07;;
6902;SDS011;20232;49.408;8.702;2022-12-07T20:06:48;21.10;;;17.73;;
6902;SDS011;20232;49.408;8.702;2022-12-07T20:09:15;21.50;;;17.47;;
6902;SDS011;20232;49.408;8.702;2022-12-07T20:11:41;19.43;;;16.87;;
6902;SDS011;20232;49.408;8.702;2022-12-07T20:14:25;21.27;;;17.23;;
6902;SDS011;20232;49.408;8.702;2022-12-07T20:16:51;20.80;;;16.73;;
6902;SDS011;20232;49.408;8.702;2022-12-07T20:19:17;19.80;;;17.03;;
6902;SDS011;20232;49.408;8.702;2022-12-07T20:21:44;22.73;;;18.93;;
6902;SDS011;20232;49.408;8.702;2022-12-07T20:24:11;24.83;;;20.27;;
6902;SDS011;20232;49.408;8.702;2022-12-07T20:26:37;21.90;;;18.00;;
6902;SDS011;20232;49.408;8.702;2022-12-07T20:29:04;23.80;;;17.63;;
6902;SDS011;20232;49.408;8.702;2022-12-07T20:31:30;21.53;;;18.93;;
6902;SDS011;20232;49.408;8.702;2022-12-07T20:33:56;22.00;;;18.40;;
6902;SDS011;20232;49.408;8.702;2022-12-07T20:36:24;24.50;;;19.43;;
6902;SDS011;20232;49.408;8.702;2022-12-07T20:38:50;43.30;;;34.13;;
6902;SDS011;20232;49.408;8.702;2022-12-07T20:41:17;26.90;;;21.93;;
6902;SDS011;20232;49.408;8.702;2022-12-07T20:44:02;25.77;;;22.07;;
6902;SDS011;20232;49.408;8.702;2022-12-07T20:46:28;26.27;;;19.20;;
6902;SDS011;20232;49.408;8.702;2022-12-07T20:48:56;22.83;;;18.70;;
6902;SDS011;20232;49.408;8.702;2022-12-07T20:51:22;20.77;;;16.93;;
6902;SDS011;20232;49.408;8.702;2022-12-07T20:53:48;21.60;;;17.73;;